createdAt,value
2018-12-26T00:01:58.818Z,16.73
2018-12-26T00:04:28.540Z,17.90
2018-12-26T00:06:58.425Z,20.03
2018-12-26T00:09:28.237Z,12.00
2018-12-26T00:11:57.940Z,19.67
2018-12-26T00:14:27.771Z,17.17
2018-12-26T00:16:57.539Z,14.63
2018-12-26T00:19:27.418Z,12.07
2018-12-26T00:21:57.423Z,9.63
2018-12-26T00:24:29.484Z,9.23
2018-12-26T00:27:00.580Z,12.53
2018-12-26T00:29:30.341Z,11.73
2018-12-26T00:32:00.075Z,8.70
2018-12-26T00:34:29.967Z,9.67
2018-12-26T00:36:59.763Z,12.80
2018-12-26T00:39:29.502Z,11.10
2018-12-26T00:41:59.279Z,8.90
2018-12-26T00:44:29.060Z,8.33
2018-12-26T00:46:58.812Z,8.27
2018-12-26T00:49:28.713Z,6.30
2018-12-26T00:51:58.410Z,6.57
2018-12-26T00:54:28.208Z,6.50
2018-12-26T00:56:57.895Z,9.40
2018-12-26T00:59:28.005Z,8.00
2018-12-26T01:01:57.852Z,7.50
2018-12-26T01:04:27.559Z,7.67
2018-12-26T01:06:57.303Z,6.07
2018-12-26T01:09:27.059Z,9.40
2018-12-26T01:11:56.766Z,7.83
2018-12-26T01:14:26.462Z,6.53
2018-12-26T01:16:56.341Z,9.90
2018-12-26T01:19:26.032Z,12.57
2018-12-26T01:21:55.806Z,9.37
2018-12-26T01:24:25.582Z,11.30
2018-12-26T01:26:55.310Z,10.93
2018-12-26T01:29:25.035Z,12.23
2018-12-26T01:31:54.742Z,12.43
2018-12-26T01:34:24.440Z,10.47
2018-12-26T01:36:54.132Z,8.13
2018-12-26T01:39:23.834Z,13.10
2018-12-26T01:41:53.567Z,9.83
2018-12-26T01:44:25.040Z,9.03
2018-12-26T01:46:54.901Z,10.90
2018-12-26T01:49:24.646Z,10.43
2018-12-26T01:51:56.765Z,9.83
2018-12-26T01:54:26.502Z,9.83
2018-12-26T01:56:56.258Z,10.33
2018-12-26T01:59:25.938Z,11.90
2018-12-26T02:01:58.432Z,8.40
2018-12-26T02:04:28.130Z,10.47
2018-12-26T02:06:57.842Z,11.77
2018-12-26T02:09:27.522Z,7.47
2018-12-26T02:11:58.787Z,10.23
2018-12-26T02:14:28.558Z,12.60
2018-12-26T02:16:58.279Z,12.00
2018-12-26T02:19:27.965Z,10.47
2018-12-26T02:21:57.673Z,10.30
2018-12-26T02:24:27.376Z,9.87
2018-12-26T02:26:57.187Z,11.93
2018-12-26T02:33:27.341Z,8.70
2018-12-26T02:35:57.089Z,9.77
2018-12-26T02:38:26.850Z,10.43
2018-12-26T02:40:56.569Z,12.10
2018-12-26T02:43:26.329Z,14.27
2018-12-26T02:45:56.083Z,8.90
2018-12-26T02:48:25.882Z,11.87
2018-12-26T02:50:56.104Z,10.90
2018-12-26T02:53:25.812Z,12.30
2018-12-26T02:55:55.759Z,13.50
2018-12-26T02:58:25.526Z,10.63
2018-12-26T03:00:55.263Z,11.17
2018-12-26T03:03:24.974Z,11.20
2018-12-26T03:05:54.696Z,9.03
2018-12-26T03:08:24.577Z,9.53
2018-12-26T03:10:54.565Z,10.43
2018-12-26T03:13:24.395Z,9.57
2018-12-26T03:15:54.311Z,11.83
2018-12-26T03:18:26.930Z,8.67
2018-12-26T03:20:56.751Z,16.63
2018-12-26T03:23:26.595Z,9.53
2018-12-26T03:25:56.383Z,10.73
2018-12-26T03:28:28.673Z,10.67
2018-12-26T03:30:58.377Z,10.77
2018-12-26T03:33:29.687Z,10.90
2018-12-26T03:35:59.376Z,10.60
2018-12-26T03:38:29.149Z,10.90
2018-12-26T03:40:58.928Z,12.33
2018-12-26T03:43:31.594Z,8.80
2018-12-26T03:46:01.356Z,9.37
2018-12-26T03:48:32.016Z,9.17
2018-12-26T03:51:01.801Z,14.80
2018-12-26T03:53:31.592Z,10.83
2018-12-26T03:56:01.418Z,10.07
2018-12-26T03:58:31.111Z,12.63
2018-12-26T04:01:00.912Z,11.57
2018-12-26T04:03:30.645Z,11.50
2018-12-26T04:06:00.368Z,12.70
2018-12-26T04:08:30.093Z,10.83
2018-12-26T04:10:59.977Z,11.60
2018-12-26T04:13:29.977Z,9.13
2018-12-26T04:15:59.940Z,8.13
2018-12-26T04:18:29.628Z,9.37
2018-12-26T04:20:59.475Z,9.50
2018-12-26T04:23:29.635Z,9.67
2018-12-26T04:25:59.386Z,10.40
2018-12-26T04:28:29.248Z,7.87
2018-12-26T04:30:58.943Z,7.43
2018-12-26T04:33:28.653Z,9.83
2018-12-26T04:35:58.495Z,11.10
2018-12-26T04:38:28.328Z,13.93
2018-12-26T04:40:59.554Z,7.47
2018-12-26T04:43:29.291Z,6.33
2018-12-26T04:45:58.977Z,6.33
2018-12-26T04:48:28.711Z,5.97
2018-12-26T04:50:58.706Z,7.20
2018-12-26T04:53:28.465Z,7.47
2018-12-26T04:55:58.269Z,7.20
2018-12-26T04:58:27.959Z,9.07
2018-12-26T05:00:57.662Z,9.57
2018-12-26T05:03:27.427Z,7.57
2018-12-26T05:05:57.194Z,8.73
2018-12-26T05:08:28.553Z,6.40
2018-12-26T05:10:58.359Z,8.33
2018-12-26T05:13:28.068Z,7.00
2018-12-26T05:15:57.862Z,10.20
2018-12-26T05:18:27.552Z,8.33
2018-12-26T05:20:57.276Z,8.33
2018-12-26T05:23:26.993Z,9.33
2018-12-26T05:25:56.762Z,7.47
2018-12-26T05:28:26.464Z,8.27
2018-12-26T05:30:56.253Z,10.20
2018-12-26T05:33:25.925Z,9.03
2018-12-26T05:35:55.612Z,8.67
2018-12-26T05:38:25.411Z,9.93
2018-12-26T05:40:55.170Z,8.73
2018-12-26T05:43:24.907Z,10.93
2018-12-26T05:45:54.619Z,9.10
2018-12-26T05:48:24.327Z,7.57
2018-12-26T05:50:54.040Z,8.00
2018-12-26T05:53:23.733Z,9.50
2018-12-26T05:55:53.466Z,10.63
2018-12-26T05:58:23.283Z,10.57
2018-12-26T06:00:53.009Z,8.77
2018-12-26T06:03:22.758Z,10.83
2018-12-26T06:05:52.872Z,9.63
2018-12-26T06:08:24.178Z,13.93
2018-12-26T06:10:54.278Z,13.70
2018-12-26T06:13:24.138Z,13.17
2018-12-26T06:15:55.142Z,14.07
2018-12-26T06:18:24.846Z,14.23
2018-12-26T06:20:54.601Z,14.53
2018-12-26T06:23:24.346Z,14.90
2018-12-26T06:25:54.075Z,11.93
2018-12-26T06:28:23.796Z,17.63
2018-12-26T06:30:53.499Z,12.17
2018-12-26T06:33:23.331Z,18.07
2018-12-26T06:35:53.117Z,15.37
2018-12-26T06:38:22.825Z,15.80
2018-12-26T06:40:52.535Z,16.03
2018-12-26T06:43:22.222Z,15.43
2018-12-26T06:45:51.922Z,16.57
2018-12-26T06:48:21.666Z,14.40
2018-12-26T06:50:52.082Z,17.30
2018-12-26T06:53:23.449Z,14.83
2018-12-26T06:55:53.145Z,14.20
2018-12-26T06:58:22.870Z,16.73
2018-12-26T07:00:52.563Z,15.47
2018-12-26T07:03:23.629Z,15.47
2018-12-26T07:05:53.601Z,17.43
2018-12-26T07:08:23.368Z,15.93
2018-12-26T07:10:53.074Z,16.53
2018-12-26T07:13:22.918Z,16.20
2018-12-26T07:15:52.683Z,15.33
2018-12-26T07:18:22.442Z,15.07
2018-12-26T07:20:52.197Z,16.50
2018-12-26T07:23:21.870Z,13.97
2018-12-26T07:25:51.597Z,13.03
2018-12-26T07:28:21.363Z,16.30
2018-12-26T07:30:51.102Z,15.60
2018-12-26T07:33:20.849Z,14.47
2018-12-26T07:35:50.618Z,17.43
2018-12-26T07:38:20.329Z,14.03
2018-12-26T07:40:50.024Z,15.80
2018-12-26T07:43:19.723Z,16.27
2018-12-26T07:45:49.441Z,14.47
2018-12-26T07:48:19.163Z,20.80
2018-12-26T07:50:48.881Z,17.67
2018-12-26T07:53:18.617Z,15.70
2018-12-26T07:55:50.285Z,19.60
2018-12-26T07:58:20.134Z,17.57
2018-12-26T08:00:49.963Z,16.87
2018-12-26T08:03:19.684Z,20.20
2018-12-26T08:05:49.439Z,16.47
2018-12-26T08:08:19.166Z,15.97
2018-12-26T08:10:48.922Z,22.50
2018-12-26T08:13:18.648Z,19.50
2018-12-26T08:15:48.367Z,24.53
2018-12-26T08:18:18.695Z,25.43
2018-12-26T08:20:48.403Z,29.13
2018-12-26T08:23:18.136Z,20.77
2018-12-26T08:25:47.816Z,25.13
2018-12-26T08:28:26.297Z,22.97
2018-12-26T08:30:49.004Z,26.50
2018-12-26T08:33:18.727Z,24.57
2018-12-26T08:35:48.473Z,20.40
2018-12-26T08:38:18.247Z,25.57
2018-12-26T08:40:47.962Z,15.70
2018-12-26T08:43:17.686Z,25.93
2018-12-26T08:45:47.382Z,22.27
2018-12-26T08:48:17.094Z,19.60
2018-12-26T08:50:46.839Z,18.60
2018-12-26T08:53:19.239Z,24.37
2018-12-26T08:55:49.332Z,20.43
2018-12-26T08:58:20.607Z,13.67
2018-12-26T09:00:50.394Z,19.33
2018-12-26T09:03:20.072Z,24.80
2018-12-26T09:05:49.784Z,21.60
2018-12-26T09:08:19.552Z,16.30
2018-12-26T09:10:49.310Z,19.70
2018-12-26T09:13:19.046Z,20.43
2018-12-26T09:15:48.761Z,16.40
2018-12-26T09:18:18.458Z,13.87
2018-12-26T09:20:48.630Z,23.70
2018-12-26T09:23:18.435Z,16.37
2018-12-26T09:25:48.866Z,17.90
2018-12-26T09:28:18.573Z,11.10
2018-12-26T09:30:48.256Z,15.67
2018-12-26T09:33:17.950Z,12.87
2018-12-26T09:35:47.638Z,13.77
2018-12-26T09:38:18.701Z,12.57
2018-12-26T09:40:48.424Z,14.97
2018-12-26T09:43:18.139Z,8.97
2018-12-26T09:45:47.833Z,14.77
2018-12-26T09:48:17.684Z,11.73
2018-12-26T09:50:47.362Z,9.73
2018-12-26T09:53:17.051Z,10.80
2018-12-26T09:55:46.747Z,11.33
2018-12-26T09:58:16.515Z,11.30
2018-12-26T10:00:46.208Z,10.97
2018-12-26T10:03:15.956Z,9.77
2018-12-26T10:05:45.992Z,8.30
2018-12-26T10:08:20.044Z,9.23
2018-12-26T10:10:48.490Z,8.07
2018-12-26T10:13:18.315Z,7.57
2018-12-26T10:15:48.043Z,9.73
2018-12-26T10:18:17.850Z,8.77
2018-12-26T10:20:50.652Z,9.50
2018-12-26T10:23:20.384Z,6.93
2018-12-26T10:25:50.103Z,6.83
2018-12-26T10:28:19.865Z,13.33
2018-12-26T10:30:49.577Z,7.80
2018-12-26T10:33:19.379Z,8.30
2018-12-26T10:35:49.056Z,10.50
2018-12-26T10:38:18.743Z,8.10
2018-12-26T10:40:48.442Z,9.30
2018-12-26T10:43:18.138Z,14.87
2018-12-26T10:45:47.826Z,10.90
2018-12-26T10:48:17.517Z,12.80
2018-12-26T10:50:47.295Z,11.40
2018-12-26T10:53:17.021Z,8.63
2018-12-26T10:55:47.045Z,12.47
2018-12-26T10:58:16.859Z,13.23
2018-12-26T11:00:46.557Z,15.57
2018-12-26T11:03:16.252Z,12.30
2018-12-26T11:05:45.931Z,12.40
2018-12-26T11:08:15.623Z,10.83
2018-12-26T11:10:45.422Z,13.07
2018-12-26T11:13:15.149Z,11.73
2018-12-26T11:15:44.918Z,12.00
2018-12-26T11:18:15.175Z,13.00
2018-12-26T11:20:44.970Z,11.63
2018-12-26T11:23:14.725Z,9.50
2018-12-26T11:25:44.472Z,12.83
2018-12-26T11:28:14.155Z,9.67
2018-12-26T11:30:43.868Z,11.97
2018-12-26T11:33:13.656Z,12.07
2018-12-26T11:35:43.386Z,11.33
2018-12-26T11:38:13.158Z,12.17
2018-12-26T11:40:44.399Z,8.93
2018-12-26T11:43:14.096Z,7.30
2018-12-26T11:45:43.801Z,7.97
2018-12-26T11:48:13.493Z,8.90
2018-12-26T11:50:43.209Z,6.33
2018-12-26T11:53:12.882Z,5.30
2018-12-26T11:55:45.662Z,7.43
2018-12-26T11:58:15.374Z,8.60
2018-12-26T12:00:45.184Z,9.23
2018-12-26T12:03:14.930Z,9.47
2018-12-26T12:05:44.749Z,7.33
2018-12-26T12:08:15.812Z,7.40
2018-12-26T12:10:45.643Z,9.13
2018-12-26T12:13:15.360Z,6.20
2018-12-26T12:15:45.159Z,6.77
2018-12-26T12:18:14.837Z,8.87
2018-12-26T12:20:45.842Z,7.00
2018-12-26T12:23:16.715Z,8.33
2018-12-26T12:25:46.661Z,9.17
2018-12-26T12:28:16.353Z,8.33
2018-12-26T12:30:46.082Z,10.63
2018-12-26T12:33:15.772Z,7.47
2018-12-26T12:35:45.560Z,6.17
2018-12-26T12:38:15.289Z,9.30
2018-12-26T12:40:45.410Z,12.87
2018-12-26T12:43:15.172Z,6.60
2018-12-26T12:45:45.129Z,6.60
2018-12-26T12:48:15.257Z,9.30
2018-12-26T12:50:44.937Z,8.47
2018-12-26T12:53:14.659Z,11.03
2018-12-26T12:55:44.321Z,6.57
2018-12-26T12:58:14.009Z,7.70
2018-12-26T13:00:45.885Z,8.73
2018-12-26T13:03:15.596Z,8.63
2018-12-26T13:05:45.359Z,8.23
2018-12-26T13:08:15.055Z,7.47
2018-12-26T13:10:44.729Z,11.93
2018-12-26T13:13:14.443Z,9.07
2018-12-26T13:15:44.132Z,7.37
2018-12-26T13:18:15.439Z,9.47
2018-12-26T13:20:45.205Z,9.07
2018-12-26T13:23:15.012Z,8.50
2018-12-26T13:25:46.057Z,8.40
2018-12-26T13:28:16.197Z,9.07
2018-12-26T13:30:45.931Z,7.67
2018-12-26T13:33:15.641Z,9.03
2018-12-26T13:35:45.399Z,6.87
2018-12-26T13:38:15.099Z,8.80
2018-12-26T13:40:44.807Z,7.33
2018-12-26T13:43:14.501Z,8.53
2018-12-26T13:45:44.176Z,9.17
2018-12-26T13:48:13.874Z,11.00
2018-12-26T13:50:44.603Z,14.63
2018-12-26T13:53:14.544Z,9.97
2018-12-26T13:55:44.227Z,12.27
2018-12-26T13:58:13.900Z,12.57
2018-12-26T14:00:43.601Z,17.17
2018-12-26T14:03:13.301Z,15.43
2018-12-26T14:05:43.037Z,13.93
2018-12-26T14:08:12.782Z,14.77
2018-12-26T14:10:42.489Z,16.37
2018-12-26T14:13:13.394Z,20.37
2018-12-26T14:15:44.896Z,18.83
2018-12-26T14:18:14.610Z,19.77
2018-12-26T14:20:44.301Z,18.27
2018-12-26T14:23:14.008Z,18.20
2018-12-26T14:25:43.750Z,17.17
2018-12-26T14:28:13.419Z,18.53
2018-12-26T14:30:43.131Z,24.60
2018-12-26T14:33:12.820Z,21.47
2018-12-26T14:35:45.598Z,17.70
2018-12-26T14:38:15.370Z,22.37
2018-12-26T14:40:45.048Z,20.80
2018-12-26T14:43:14.723Z,20.77
2018-12-26T14:45:44.399Z,22.57
2018-12-26T14:48:14.090Z,20.97
2018-12-26T14:50:43.805Z,23.67
2018-12-26T14:53:13.582Z,24.47
2018-12-26T14:55:43.326Z,20.70
2018-12-26T14:58:13.020Z,22.80
2018-12-26T15:00:43.294Z,24.43
2018-12-26T15:03:13.050Z,24.27
2018-12-26T15:08:12.413Z,23.50
2018-12-26T15:10:42.492Z,26.07
2018-12-26T15:13:12.488Z,24.77
2018-12-26T15:15:42.661Z,24.13
2018-12-26T15:18:12.716Z,24.10
2018-12-26T15:20:42.692Z,25.37
2018-12-26T15:23:12.822Z,28.87
2018-12-26T15:25:42.824Z,24.80
2018-12-26T15:28:12.737Z,22.03
2018-12-26T15:30:42.616Z,24.67
2018-12-26T15:33:12.500Z,22.83
2018-12-26T15:35:42.278Z,29.40
2018-12-26T15:38:12.081Z,25.00
2018-12-26T15:40:41.952Z,21.13
2018-12-26T15:43:11.866Z,21.67
2018-12-26T15:45:41.692Z,19.47
2018-12-26T15:48:11.690Z,14.73
2018-12-26T15:50:41.454Z,17.57
2018-12-26T15:53:11.398Z,15.67
2018-12-26T15:55:42.016Z,19.83
2018-12-26T15:58:12.099Z,19.60
2018-12-26T16:00:42.510Z,14.50
2018-12-26T16:03:12.586Z,22.47
2018-12-26T16:05:42.580Z,16.93
2018-12-26T16:08:12.510Z,16.30
2018-12-26T16:10:42.542Z,18.17
2018-12-26T16:13:12.386Z,18.13
2018-12-26T16:15:42.191Z,15.07
2018-12-26T16:18:12.023Z,19.53
2018-12-26T16:20:41.815Z,16.93
2018-12-26T16:23:11.710Z,17.30
2018-12-26T16:25:41.690Z,20.93
2018-12-26T16:28:11.632Z,17.60
2018-12-26T16:30:46.123Z,22.20
2018-12-26T16:33:13.200Z,17.57
2018-12-26T16:35:42.984Z,21.83
2018-12-26T16:38:12.801Z,16.03
2018-12-26T16:40:42.754Z,16.30
2018-12-26T16:43:12.712Z,20.93
2018-12-26T16:45:44.323Z,15.43
2018-12-26T16:48:14.491Z,16.67
2018-12-26T16:50:44.440Z,16.37
2018-12-26T16:53:14.317Z,16.80
2018-12-26T16:55:44.249Z,19.83
2018-12-26T16:58:14.155Z,18.40
2018-12-26T17:00:44.145Z,16.77
2018-12-26T17:03:14.142Z,16.30
2018-12-26T17:05:44.157Z,12.87
2018-12-26T17:08:13.981Z,15.00
2018-12-26T17:10:44.438Z,15.20
2018-12-26T17:13:14.447Z,18.13
2018-12-26T17:15:44.780Z,16.13
2018-12-26T17:18:15.300Z,17.33
2018-12-26T17:20:45.445Z,15.07
2018-12-26T17:23:15.714Z,18.20
2018-12-26T17:25:45.678Z,10.17
2018-12-26T17:28:15.754Z,13.80
2018-12-26T17:30:45.657Z,17.30
2018-12-26T17:33:15.565Z,15.20
2018-12-26T17:35:45.772Z,14.77
2018-12-26T17:38:15.754Z,11.60
2018-12-26T17:40:46.249Z,15.73
2018-12-26T17:43:16.144Z,18.50
2018-12-26T17:45:46.082Z,18.93
2018-12-26T17:48:16.180Z,26.97
2018-12-26T17:50:49.965Z,22.97
2018-12-26T17:53:31.957Z,15.53
2018-12-26T17:56:07.866Z,19.70
2018-12-26T17:58:55.803Z,22.00
2018-12-26T18:01:37.719Z,19.07
2018-12-26T18:04:07.639Z,20.20
2018-12-26T18:06:37.492Z,20.00
2018-12-26T18:09:07.659Z,23.17
2018-12-26T18:11:37.632Z,21.87
2018-12-26T18:14:07.481Z,17.80
2018-12-26T18:16:37.363Z,23.83
2018-12-26T18:19:07.135Z,26.63
2018-12-26T18:21:36.986Z,22.80
2018-12-26T18:24:07.025Z,18.07
2018-12-26T18:26:37.235Z,15.50
2018-12-26T18:29:07.308Z,14.97
2018-12-26T18:31:37.329Z,16.93
2018-12-26T18:34:07.375Z,18.80
2018-12-26T18:36:37.671Z,14.50
2018-12-26T18:39:07.980Z,20.90
2018-12-26T18:41:37.937Z,17.50
2018-12-26T18:44:07.807Z,16.33
2018-12-26T18:46:37.818Z,17.37
2018-12-26T18:49:07.702Z,15.43
2018-12-26T18:51:37.758Z,16.13
2018-12-26T18:54:08.540Z,17.33
2018-12-26T18:56:39.191Z,12.90
2018-12-26T18:59:09.312Z,13.03
2018-12-26T19:01:39.606Z,9.80
2018-12-26T19:04:09.790Z,10.63
2018-12-26T19:06:40.910Z,17.40
2018-12-26T19:09:10.843Z,12.17
2018-12-26T19:11:40.569Z,14.87
2018-12-26T19:14:10.468Z,13.63
2018-12-26T19:16:40.314Z,12.70
2018-12-26T19:19:10.044Z,17.00
2018-12-26T19:21:39.963Z,17.10
2018-12-26T19:24:09.935Z,12.23
2018-12-26T19:26:40.131Z,14.23
2018-12-26T19:29:10.201Z,13.13
2018-12-26T19:31:40.109Z,14.17
2018-12-26T19:34:09.940Z,13.63
2018-12-26T19:36:39.797Z,13.77
2018-12-26T19:39:09.667Z,14.20
2018-12-26T19:41:39.483Z,15.20
2018-12-26T19:44:09.272Z,12.93
2018-12-26T19:46:39.086Z,14.90
2018-12-26T19:49:09.113Z,14.90
2018-12-26T19:51:40.913Z,13.37
2018-12-26T19:54:13.348Z,28.67
2018-12-26T19:56:44.099Z,19.43
2018-12-26T19:59:14.673Z,17.47
2018-12-26T20:01:48.306Z,17.77
2018-12-26T20:04:18.637Z,16.53
2018-12-26T20:06:48.862Z,18.80
2018-12-26T20:09:20.071Z,15.57
2018-12-26T20:11:50.499Z,15.03
2018-12-26T20:14:20.472Z,15.63
2018-12-26T20:16:50.297Z,16.03
2018-12-26T20:19:20.196Z,18.87
2018-12-26T20:21:50.134Z,15.37
2018-12-26T20:24:20.096Z,16.73
2018-12-26T20:26:50.160Z,18.63
2018-12-26T20:29:20.327Z,23.27
2018-12-26T20:31:56.889Z,14.63
2018-12-26T20:34:22.157Z,16.33
2018-12-26T20:36:53.203Z,18.83
2018-12-26T20:39:23.212Z,15.20
2018-12-26T20:41:53.030Z,17.50
2018-12-26T20:44:22.999Z,16.33
2018-12-26T20:46:52.921Z,18.60
2018-12-26T20:49:22.987Z,25.30
2018-12-26T20:51:52.882Z,21.80
2018-12-26T20:54:22.879Z,18.80
2018-12-26T20:56:52.640Z,18.67
2018-12-26T20:59:22.428Z,18.20
2018-12-26T21:01:52.647Z,18.10
2018-12-26T21:04:23.029Z,19.57
2018-12-26T21:06:53.460Z,21.27
2018-12-26T21:09:23.798Z,20.93
2018-12-26T21:11:55.052Z,31.87
2018-12-26T21:14:25.040Z,20.97
2018-12-26T21:16:55.477Z,18.67
2018-12-26T21:19:28.070Z,23.13
2018-12-26T21:21:59.665Z,18.43
2018-12-26T21:24:30.225Z,21.03
2018-12-26T21:27:00.066Z,17.33
2018-12-26T21:29:29.885Z,21.53
2018-12-26T21:31:59.710Z,22.27
2018-12-26T21:34:29.552Z,22.23
2018-12-26T21:36:59.516Z,17.00
2018-12-26T21:39:29.380Z,22.57
2018-12-26T21:41:59.345Z,17.60
2018-12-26T21:44:29.828Z,24.03
2018-12-26T21:47:01.876Z,20.23
2018-12-26T21:49:33.922Z,21.20
2018-12-26T21:52:03.920Z,13.67
2018-12-26T21:54:35.670Z,17.03
2018-12-26T21:57:09.730Z,15.37
2018-12-26T21:59:40.840Z,14.30
2018-12-26T22:02:10.664Z,17.50
2018-12-26T22:04:40.455Z,16.57
2018-12-26T22:07:10.281Z,19.50
2018-12-26T22:09:40.078Z,15.20
2018-12-26T22:12:10.296Z,15.50
2018-12-26T22:14:40.172Z,19.07
2018-12-26T22:17:09.998Z,13.97
2018-12-26T22:19:39.851Z,15.60
2018-12-26T22:22:09.983Z,17.50
2018-12-26T22:24:39.812Z,24.93
2018-12-26T22:27:10.078Z,18.33
2018-12-26T22:29:39.996Z,13.77
2018-12-26T22:32:10.003Z,17.53
2018-12-26T22:34:39.900Z,21.33
2018-12-26T22:37:09.784Z,23.67
2018-12-26T22:39:40.145Z,21.03
2018-12-26T22:42:11.371Z,21.57
2018-12-26T22:48:31.048Z,23.90
2018-12-26T22:51:00.854Z,22.13
2018-12-26T22:53:31.838Z,27.97
2018-12-26T22:56:29.134Z,22.00
2018-12-26T22:58:59.409Z,34.03
2018-12-26T23:01:29.475Z,32.50
2018-12-26T23:03:59.330Z,30.27
2018-12-26T23:06:29.461Z,32.37
2018-12-26T23:08:59.450Z,29.30
2018-12-26T23:11:29.282Z,33.10
2018-12-26T23:13:59.216Z,27.10
2018-12-26T23:16:29.223Z,35.20
2018-12-26T23:18:59.289Z,35.50
2018-12-26T23:21:29.172Z,34.30
2018-12-26T23:24:00.073Z,37.70
2018-12-26T23:26:30.250Z,34.23
2018-12-26T23:29:00.091Z,39.73
2018-12-26T23:31:30.264Z,39.23
2018-12-26T23:34:00.166Z,38.03
2018-12-26T23:36:30.145Z,40.07
2018-12-26T23:39:00.477Z,38.30
2018-12-26T23:41:30.281Z,32.73
2018-12-26T23:44:00.118Z,36.90
2018-12-26T23:46:30.398Z,42.27
2018-12-26T23:49:00.736Z,34.87
2018-12-26T23:51:30.850Z,34.03
2018-12-26T23:54:00.643Z,36.40
2018-12-26T23:56:30.455Z,34.80
2018-12-26T23:59:01.356Z,30.93
